Sagunto, Spain
Current Conditions -  °F | °C
As of 8:00 PM on Monday 22 Dec 2014 (Local Time) from LEBT Reporting Station
Clear Clear  
Wind Chill:   Ceiling: Unl
Heat Index:   Visibility: 2.3mi
Dew Point:   Wind: 6mph
Humidity: 93%   Direction: 10°N
Pressure: 30.45"   Gusts: NA
Location:  39.68°N, 0.27°W
Report Text: LEBT 221900Z AUTO 01005KT 3700 // NSC 08/07 Q1031
Loading
Personal Weather Stations






























Interactive Weather Map New forecast layout! Learn more

10-Day Weather Forecast

Advertisements
Track Severe Weather on mobile